createdAt,value
2018-03-02T00:00:25.556Z,30.80
2018-03-02T00:02:52.587Z,30.80
2018-03-02T00:05:19.563Z,31.10
2018-03-02T00:07:46.541Z,31.00
2018-03-02T00:10:13.595Z,31.10
2018-03-02T00:12:40.564Z,31.30
2018-03-02T00:15:07.536Z,31.30
2018-03-02T00:17:35.279Z,31.20
2018-03-02T00:20:02.268Z,31.20
2018-03-02T00:22:30.008Z,31.60
2018-03-02T00:24:57.051Z,31.60
2018-03-02T00:27:24.116Z,31.50
2018-03-02T00:29:51.176Z,31.70
2018-03-02T00:32:18.159Z,31.70
2018-03-02T00:34:45.136Z,31.90
2018-03-02T00:37:12.159Z,32.10
2018-03-02T00:39:39.135Z,32.10
2018-03-02T00:42:06.117Z,31.90
2018-03-02T00:44:33.856Z,32.40
2018-03-02T00:47:00.898Z,32.30
2018-03-02T00:49:27.876Z,32.40
2018-03-02T00:51:54.863Z,32.50
2018-03-02T00:54:21.884Z,32.40
2018-03-02T00:56:48.931Z,32.70
2018-03-02T00:59:15.894Z,32.70
2018-03-02T01:01:42.875Z,32.50
2018-03-02T01:04:09.849Z,32.80
2018-03-02T01:06:36.827Z,32.70
2018-03-02T01:09:04.571Z,33.10
2018-03-02T01:11:32.323Z,33.10
2018-03-02T01:13:59.295Z,33.10
2018-03-02T01:16:26.275Z,33.10
2018-03-02T01:18:53.252Z,33.40
2018-03-02T01:21:21.075Z,33.80
2018-03-02T01:23:48.136Z,33.70
2018-03-02T01:26:15.120Z,33.70
2018-03-02T01:28:42.096Z,33.70
2018-03-02T01:31:09.075Z,33.80
2018-03-02T01:33:36.895Z,33.70
2018-03-02T01:36:04.052Z,33.70
2018-03-02T01:38:31.028Z,34.10
2018-03-02T01:40:58.019Z,34.10
2018-03-02T01:43:24.987Z,34.30
2018-03-02T01:45:52.731Z,34.20
2018-03-02T01:48:20.612Z,34.20
2018-03-02T01:50:47.588Z,34.40
2018-03-02T01:53:14.603Z,34.30
2018-03-02T01:55:41.667Z,34.40
2018-03-02T01:58:09.411Z,35.10
2018-03-02T02:00:36.392Z,34.50
2018-03-02T02:03:03.450Z,34.50
2018-03-02T02:05:30.431Z,34.60
2018-03-02T02:07:57.607Z,34.70
2018-03-02T02:10:24.640Z,34.70
2018-03-02T02:12:51.615Z,34.70
2018-03-02T02:15:18.655Z,34.80
2018-03-02T02:17:45.717Z,34.80
2018-03-02T02:20:12.687Z,35.00
2018-03-02T02:22:39.736Z,35.20
2018-03-02T02:25:06.717Z,35.10
2018-03-02T02:27:33.756Z,35.00
2018-03-02T02:30:00.727Z,35.10
2018-03-02T02:32:27.772Z,35.00
2018-03-02T02:34:54.744Z,35.30
2018-03-02T02:37:21.728Z,35.50
2018-03-02T02:39:48.699Z,35.40
2018-03-02T02:42:16.520Z,35.70
2018-03-02T02:44:43.494Z,35.70
2018-03-02T02:47:10.477Z,35.50
2018-03-02T02:49:37.448Z,35.70
2018-03-02T02:52:05.277Z,36.00
2018-03-02T02:54:32.335Z,35.90
2018-03-02T02:56:59.391Z,36.20
2018-03-02T02:59:26.362Z,36.00
2018-03-02T03:01:53.348Z,35.90
2018-03-02T03:04:20.320Z,36.00
2018-03-02T03:06:48.147Z,36.50
2018-03-02T03:09:15.206Z,36.30
2018-03-02T03:11:42.268Z,36.70
2018-03-02T03:14:09.243Z,36.50
2018-03-02T03:16:36.227Z,36.60
2018-03-02T03:19:03.203Z,36.80
2018-03-02T03:21:31.023Z,36.80
2018-03-02T03:23:57.999Z,36.80
2018-03-02T03:26:24.979Z,36.90
2018-03-02T03:28:52.000Z,36.80
2018-03-02T03:31:18.988Z,36.80
2018-03-02T03:33:45.963Z,36.80
2018-03-02T03:36:13.791Z,37.10
2018-03-02T03:38:40.764Z,37.10
2018-03-02T03:41:07.756Z,37.00
2018-03-02T03:43:35.589Z,37.30
2018-03-02T03:46:02.571Z,37.30
2018-03-02T03:48:29.603Z,37.40
2018-03-02T03:50:56.583Z,37.30
2018-03-02T03:53:23.555Z,37.40
2018-03-02T03:55:50.539Z,37.50
2018-03-02T03:58:18.274Z,37.60
2018-03-02T04:00:45.255Z,37.50
2018-03-02T04:03:12.228Z,37.50
2018-03-02T04:05:39.974Z,37.60
2018-03-02T04:08:06.955Z,37.60
2018-03-02T04:10:34.695Z,38.50
2018-03-02T04:13:01.739Z,37.80
2018-03-02T04:15:28.803Z,37.70
2018-03-02T04:17:55.783Z,37.70
2018-03-02T04:20:22.766Z,37.70
2018-03-02T04:22:49.779Z,37.90
2018-03-02T04:25:16.751Z,37.90
2018-03-02T04:27:43.799Z,38.00
2018-03-02T04:30:10.859Z,37.90
2018-03-02T04:32:37.843Z,37.90
2018-03-02T04:35:04.883Z,38.00
2018-03-02T04:37:31.942Z,38.20
2018-03-02T04:39:58.999Z,38.20
2018-03-02T04:42:25.979Z,38.30
2018-03-02T04:44:52.955Z,38.20
2018-03-02T04:47:19.939Z,38.40
2018-03-02T04:49:46.911Z,38.30
2018-03-02T04:52:13.895Z,38.40
2018-03-02T04:54:40.946Z,38.60
2018-03-02T04:57:07.932Z,38.70
2018-03-02T04:59:35.071Z,38.80
2018-03-02T05:02:02.947Z,38.90
2018-03-02T05:04:29.923Z,38.90
2018-03-02T05:06:56.966Z,38.90
2018-03-02T05:09:24.027Z,38.90
2018-03-02T05:11:51.015Z,38.90
2018-03-02T05:14:18.048Z,39.60
2018-03-02T05:16:45.107Z,39.00
2018-03-02T05:19:12.082Z,39.20
2018-03-02T05:21:39.071Z,39.10
2018-03-02T05:24:06.087Z,39.30
2018-03-02T05:26:33.071Z,39.70
2018-03-02T05:29:00.047Z,39.10
2018-03-02T05:31:27.811Z,39.20
2018-03-02T05:33:54.839Z,39.10
2018-03-02T05:36:21.899Z,39.20
2018-03-02T05:38:48.871Z,39.10
2018-03-02T05:41:15.911Z,39.10
2018-03-02T05:43:42.891Z,39.20
2018-03-02T05:46:09.871Z,39.30
2018-03-02T05:48:36.886Z,39.30
2018-03-02T05:51:03.863Z,39.50
2018-03-02T05:53:30.851Z,39.70
2018-03-02T05:55:58.591Z,39.60
2018-03-02T05:58:25.575Z,39.60
2018-03-02T06:00:52.598Z,39.50
2018-03-02T06:03:19.661Z,39.60
2018-03-02T06:05:46.630Z,39.70
2018-03-02T06:08:14.528Z,39.60
2018-03-02T06:10:42.999Z,39.70
2018-03-02T06:13:10.051Z,39.60
2018-03-02T06:15:37.023Z,39.60
2018-03-02T06:18:04.010Z,39.70
2018-03-02T06:20:31.023Z,39.70
2018-03-02T06:22:58.010Z,39.40
2018-03-02T06:25:25.044Z,39.80
2018-03-02T06:27:52.025Z,39.70
2018-03-02T06:30:19.068Z,39.80
2018-03-02T06:32:46.046Z,39.80
2018-03-02T06:35:13.035Z,39.90
2018-03-02T06:37:40.780Z,39.50
2018-03-02T06:40:07.751Z,39.50
2018-03-02T06:42:34.876Z,39.80
2018-03-02T06:45:01.857Z,39.80
2018-03-02T06:47:28.836Z,40.80
2018-03-02T06:49:55.855Z,40.40
2018-03-02T06:52:22.839Z,39.90
2018-03-02T06:54:49.818Z,39.60
2018-03-02T06:57:17.563Z,39.50
2018-03-02T06:59:44.607Z,39.50
2018-03-02T07:02:11.663Z,39.80
2018-03-02T07:04:38.635Z,39.70
2018-03-02T07:07:05.620Z,39.80
2018-03-02T07:09:32.611Z,39.70
2018-03-02T07:11:59.592Z,39.20
2018-03-02T07:14:26.563Z,39.60
2018-03-02T07:16:53.546Z,39.60
2018-03-02T07:19:20.570Z,39.50
2018-03-02T07:21:47.551Z,39.80
2018-03-02T07:24:14.592Z,39.80
2018-03-02T07:26:41.652Z,39.50
2018-03-02T07:29:08.628Z,39.60
2018-03-02T07:31:35.675Z,39.40
2018-03-02T07:34:02.731Z,39.40
2018-03-02T07:36:29.715Z,39.40
2018-03-02T07:38:56.694Z,39.30
2018-03-02T07:41:24.523Z,39.40
2018-03-02T07:43:51.587Z,39.40
2018-03-02T07:46:18.556Z,39.10
2018-03-02T07:48:45.535Z,39.10
2018-03-02T07:51:12.511Z,39.10
2018-03-02T07:53:40.339Z,39.10
2018-03-02T07:56:07.403Z,39.10
2018-03-02T07:58:34.387Z,39.20
2018-03-02T08:01:01.415Z,39.20
2018-03-02T08:03:28.402Z,39.20
2018-03-02T08:05:55.377Z,39.20
2018-03-02T08:08:22.355Z,38.90
2018-03-02T08:10:50.167Z,38.70
2018-03-02T08:13:17.147Z,38.70
2018-03-02T08:15:44.127Z,38.90
2018-03-02T08:18:11.120Z,38.80
2018-03-02T08:20:38.092Z,38.60
2018-03-02T08:23:05.064Z,39.00
2018-03-02T08:25:32.051Z,38.70
2018-03-02T08:27:59.074Z,38.60
2018-03-02T08:30:26.064Z,38.60
2018-03-02T08:32:53.107Z,38.60
2018-03-02T08:35:20.082Z,38.50
2018-03-02T08:37:47.055Z,38.40
2018-03-02T08:40:16.433Z,39.00
2018-03-02T08:42:43.487Z,38.90
2018-03-02T08:45:10.556Z,38.70
2018-03-02T08:47:37.531Z,38.90
2018-03-02T08:50:04.507Z,38.70
2018-03-02T08:52:31.520Z,38.40
2018-03-02T08:54:58.499Z,38.40
2018-03-02T08:57:25.539Z,38.30
2018-03-02T08:59:52.599Z,38.20
2018-03-02T09:02:19.580Z,38.00
2018-03-02T09:04:46.567Z,38.10
2018-03-02T09:07:14.394Z,37.80
2018-03-02T09:09:41.455Z,37.80
2018-03-02T09:12:08.515Z,37.70
2018-03-02T09:14:35.501Z,37.70
2018-03-02T09:17:02.472Z,37.70
2018-03-02T09:19:29.481Z,38.10
2018-03-02T09:21:56.447Z,37.70
2018-03-02T09:24:23.511Z,37.60
2018-03-02T09:26:50.497Z,37.70
2018-03-02T09:29:17.471Z,37.50
2018-03-02T09:31:44.490Z,37.90
2018-03-02T09:34:11.464Z,37.90
2018-03-02T09:36:38.443Z,37.60
2018-03-02T09:39:05.464Z,37.50
2018-03-02T09:41:32.523Z,37.70
2018-03-02T09:43:59.495Z,37.40
2018-03-02T09:46:26.543Z,37.20
2018-03-02T09:48:53.515Z,37.00
2018-03-02T09:51:20.555Z,37.00
2018-03-02T09:53:47.528Z,37.10
2018-03-02T09:56:14.579Z,37.50
2018-03-02T09:58:41.740Z,37.00
2018-03-02T10:01:08.799Z,37.30
2018-03-02T10:03:35.841Z,37.20
2018-03-02T10:06:03.555Z,37.10
2018-03-02T10:08:30.593Z,37.10
2018-03-02T10:10:57.565Z,36.70
2018-03-02T10:13:24.552Z,36.40
2018-03-02T10:15:51.523Z,36.20
2018-03-02T10:18:19.275Z,36.60
2018-03-02T10:20:46.248Z,36.60
2018-03-02T10:23:13.259Z,36.50
2018-03-02T10:25:40.231Z,36.40
2018-03-02T10:28:07.215Z,36.40
2018-03-02T10:30:34.343Z,36.40
2018-03-02T10:33:01.313Z,36.10
2018-03-02T10:35:28.283Z,36.10
2018-03-02T10:37:55.258Z,36.00
2018-03-02T10:40:22.999Z,36.10
2018-03-02T10:42:49.980Z,35.90
2018-03-02T10:45:17.041Z,35.90
2018-03-02T10:47:43.983Z,35.70
2018-03-02T10:50:11.032Z,35.50
2018-03-02T10:52:37.996Z,35.50
2018-03-02T10:55:05.183Z,35.50
2018-03-02T10:57:32.151Z,35.30
2018-03-02T10:59:59.895Z,35.30
2018-03-02T11:02:26.871Z,35.30
2018-03-02T11:04:59.647Z,35.10
2018-03-02T11:07:26.690Z,35.20
2018-03-02T11:09:53.672Z,35.30
2018-03-02T11:12:20.634Z,35.00
2018-03-02T11:14:47.617Z,34.90
2018-03-02T11:17:14.628Z,34.60
2018-03-02T11:19:41.689Z,34.70
2018-03-02T11:22:08.656Z,34.40
2018-03-02T11:24:35.711Z,34.20
2018-03-02T11:27:02.684Z,34.50
2018-03-02T11:29:29.662Z,34.30
2018-03-02T11:31:56.627Z,34.30
2018-03-02T11:34:23.603Z,34.40
2018-03-02T11:36:51.344Z,34.60
2018-03-02T11:39:18.323Z,34.60
2018-03-02T11:41:46.055Z,35.00
2018-03-02T11:44:13.036Z,34.80
2018-03-02T11:46:40.015Z,34.70
2018-03-02T11:49:06.988Z,34.40
2018-03-02T11:51:34.722Z,34.00
2018-03-02T11:54:01.703Z,34.60
2018-03-02T11:56:29.442Z,34.80
2018-03-02T11:58:56.471Z,34.10
2018-03-02T12:01:23.387Z,34.10
2018-03-02T12:03:50.431Z,33.80
2018-03-02T12:06:17.403Z,33.60
2018-03-02T12:08:44.379Z,33.70
2018-03-02T12:11:12.114Z,34.30
2018-03-02T12:13:39.162Z,34.30
2018-03-02T12:16:06.135Z,33.70
2018-03-02T12:18:33.107Z,33.70
2018-03-02T12:21:00.084Z,33.80
2018-03-02T12:23:27.836Z,34.10
2018-03-02T12:25:54.875Z,33.90
2018-03-02T12:28:21.919Z,33.60
2018-03-02T12:30:48.843Z,33.70
2018-03-02T12:33:16.578Z,33.80
2018-03-02T12:35:43.551Z,33.80
2018-03-02T12:38:11.431Z,33.80
2018-03-02T12:40:38.403Z,33.70
2018-03-02T12:43:05.376Z,33.70
2018-03-02T12:45:33.199Z,33.90
2018-03-02T12:48:00.166Z,33.90
2018-03-02T12:50:27.151Z,33.70
2018-03-02T12:52:54.122Z,33.60
2018-03-02T12:55:21.949Z,33.50
2018-03-02T12:57:48.920Z,33.50
2018-03-02T13:00:15.899Z,33.20
2018-03-02T13:02:42.868Z,33.70
2018-03-02T13:05:09.887Z,33.70
2018-03-02T13:07:36.950Z,33.70
2018-03-02T13:10:03.923Z,33.90
2018-03-02T13:12:30.895Z,33.90
2018-03-02T13:14:57.876Z,33.70
2018-03-02T13:17:25.607Z,33.40
2018-03-02T13:19:52.611Z,33.40
2018-03-02T13:22:26.151Z,33.60
2018-03-02T13:24:53.884Z,33.50
2018-03-02T13:27:26.951Z,33.50
2018-03-02T13:29:53.928Z,32.70
2018-03-02T13:32:20.891Z,33.20
2018-03-02T13:34:53.967Z,34.00
2018-03-02T13:37:20.930Z,33.60
2018-03-02T13:40:02.782Z,33.90
2018-03-02T13:42:30.532Z,33.20
2018-03-02T13:44:57.511Z,33.20
2018-03-02T13:47:31.283Z,32.70
2018-03-02T13:50:02.132Z,33.00
2018-03-02T13:52:29.100Z,33.10
2018-03-02T13:54:56.080Z,33.30
2018-03-02T13:57:29.064Z,33.20
2018-03-02T13:59:56.109Z,32.70
2018-03-02T14:02:28.900Z,32.40
2018-03-02T14:04:59.796Z,32.20
2018-03-02T14:07:26.818Z,32.70
2018-03-02T14:09:53.878Z,33.30
2018-03-02T14:12:20.872Z,32.60
2018-03-02T14:14:47.835Z,32.30
2018-03-02T14:17:14.859Z,32.00
2018-03-02T14:19:42.542Z,31.70
2018-03-02T14:22:09.587Z,31.70
2018-03-02T14:24:36.556Z,31.00
2018-03-02T14:27:03.567Z,31.00
2018-03-02T14:29:31.388Z,30.00
2018-03-02T14:31:58.364Z,30.00
2018-03-02T14:34:25.355Z,30.80
2018-03-02T14:36:53.098Z,31.00
2018-03-02T14:39:20.127Z,30.90
2018-03-02T14:41:47.873Z,30.60
2018-03-02T14:44:15.688Z,31.30
2018-03-02T14:46:42.788Z,31.20
2018-03-02T14:49:09.759Z,31.40
2018-03-02T14:51:37.514Z,31.20
2018-03-02T14:54:04.467Z,31.10
2018-03-02T14:56:31.444Z,31.20
2018-03-02T14:58:59.271Z,31.80
2018-03-02T15:01:26.339Z,31.80
2018-03-02T15:03:53.351Z,32.10
2018-03-02T15:06:21.092Z,32.50
2018-03-02T15:08:48.067Z,32.50
2018-03-02T15:11:15.087Z,32.60
2018-03-02T15:13:42.059Z,32.70
2018-03-02T15:16:09.113Z,33.00
2018-03-02T15:18:36.083Z,33.30
2018-03-02T15:21:03.122Z,33.00
2018-03-02T15:23:30.092Z,32.80
2018-03-02T15:25:57.072Z,32.70
2018-03-02T15:28:24.076Z,33.20
2018-03-02T15:30:51.796Z,33.40
2018-03-02T15:33:18.769Z,33.40
2018-03-02T15:35:45.726Z,33.40
2018-03-02T15:38:12.723Z,33.40
2018-03-02T15:40:39.695Z,33.80
2018-03-02T15:43:06.675Z,33.30
2018-03-02T15:45:33.655Z,33.20
2018-03-02T15:48:00.640Z,33.50
2018-03-02T15:50:28.375Z,33.60
2018-03-02T15:52:55.356Z,33.60
2018-03-02T15:55:22.323Z,33.30
2018-03-02T15:57:50.156Z,33.80
2018-03-02T16:00:17.127Z,33.80
2018-03-02T16:02:44.103Z,33.80
2018-03-02T16:05:11.139Z,33.90
2018-03-02T16:07:38.143Z,34.30
2018-03-02T16:10:05.998Z,34.00
2018-03-02T16:12:33.023Z,34.00
2018-03-02T16:15:00.758Z,34.50
2018-03-02T16:17:28.549Z,34.30
2018-03-02T16:19:56.290Z,34.50
2018-03-02T16:22:23.478Z,34.50
2018-03-02T16:24:50.431Z,34.70
2018-03-02T16:27:18.185Z,35.00
2018-03-02T16:29:45.219Z,35.00
2018-03-02T16:32:12.290Z,35.20
2018-03-02T16:34:39.347Z,35.00
2018-03-02T16:37:06.320Z,34.90
2018-03-02T16:39:33.312Z,35.30
2018-03-02T16:42:01.050Z,34.80
2018-03-02T16:44:28.164Z,34.80
2018-03-02T16:46:55.131Z,35.00
2018-03-02T16:49:22.239Z,35.40
2018-03-02T16:51:49.276Z,35.30
2018-03-02T16:54:16.267Z,35.50
2018-03-02T16:56:43.239Z,35.30
2018-03-02T16:59:11.067Z,35.60
2018-03-02T17:01:38.047Z,35.60
2018-03-02T17:04:05.022Z,35.80
2018-03-02T17:06:31.999Z,35.70
2018-03-02T17:08:59.740Z,35.70
2018-03-02T17:11:26.702Z,35.70
2018-03-02T17:13:53.679Z,35.80
2018-03-02T17:16:20.691Z,35.70
2018-03-02T17:18:47.751Z,36.00
2018-03-02T17:21:14.719Z,35.90
2018-03-02T17:23:41.763Z,35.80
2018-03-02T17:26:08.735Z,36.00
2018-03-02T17:28:35.792Z,35.90
2018-03-02T17:31:02.756Z,36.10
2018-03-02T17:33:29.804Z,36.10
2018-03-02T17:35:56.835Z,36.50
2018-03-02T17:38:23.823Z,36.20
2018-03-02T17:40:50.887Z,36.40
2018-03-02T17:43:17.851Z,36.30
2018-03-02T17:45:44.835Z,36.70
2018-03-02T17:48:12.885Z,36.40
2018-03-02T17:50:39.865Z,36.40
2018-03-02T17:53:06.916Z,36.50
2018-03-02T17:55:33.959Z,37.30
2018-03-02T17:58:00.926Z,36.40
2018-03-02T18:00:27.907Z,36.60
2018-03-02T18:02:54.879Z,36.60
2018-03-02T18:05:21.891Z,36.80
2018-03-02T18:07:48.959Z,36.50
2018-03-02T18:10:15.935Z,37.00
2018-03-02T18:12:42.974Z,36.70
2018-03-02T18:15:09.951Z,36.50
2018-03-02T18:17:36.919Z,37.10
2018-03-02T18:20:03.903Z,36.80
2018-03-02T18:22:31.719Z,37.20
2018-03-02T18:24:58.708Z,37.10
2018-03-02T18:27:25.742Z,37.20
2018-03-02T18:29:52.715Z,37.10
2018-03-02T18:32:19.764Z,37.10
2018-03-02T18:34:46.731Z,37.00
2018-03-02T18:37:13.781Z,37.30
2018-03-02T18:39:40.844Z,37.00
2018-03-02T18:42:07.823Z,36.80
2018-03-02T18:44:34.859Z,36.80
2018-03-02T18:47:01.976Z,37.10
2018-03-02T18:49:28.887Z,37.00
2018-03-02T18:51:55.868Z,37.00
2018-03-02T18:54:22.836Z,37.50
2018-03-02T18:56:49.855Z,37.80
2018-03-02T18:59:16.908Z,37.70
2018-03-02T19:01:43.976Z,38.50
2018-03-02T19:04:11.039Z,38.50
2018-03-02T19:06:38.073Z,39.10
2018-03-02T19:09:05.890Z,45.10
2018-03-02T19:11:32.859Z,45.10
2018-03-02T19:13:59.824Z,46.00
2018-03-02T19:16:26.846Z,46.60
2018-03-02T19:18:53.816Z,47.10
2018-03-02T19:21:20.868Z,48.10
2018-03-02T19:23:47.840Z,48.80
2018-03-02T19:26:14.884Z,49.00
2018-03-02T19:28:41.943Z,49.70
2018-03-02T19:31:08.914Z,50.10
2018-03-02T19:33:35.896Z,50.60
2018-03-02T19:36:03.731Z,51.70
2018-03-02T19:38:30.707Z,51.70
2018-03-02T19:40:57.672Z,52.40
2018-03-02T19:43:24.655Z,53.10
2018-03-02T19:45:51.634Z,53.60
2018-03-02T19:48:20.297Z,55.60
2018-03-02T19:50:47.328Z,55.70
2018-03-02T19:53:14.304Z,56.50
2018-03-02T19:55:41.271Z,57.80
2018-03-02T19:58:08.311Z,58.20
2018-03-02T20:00:35.271Z,58.50
2018-03-02T20:03:02.324Z,59.70
2018-03-02T20:05:29.387Z,60.90
2018-03-02T20:07:56.444Z,62.00
2018-03-02T20:10:23.503Z,63.00
2018-03-02T20:12:50.564Z,64.00
2018-03-02T20:15:17.619Z,65.20
2018-03-02T20:17:44.600Z,66.20
2018-03-02T20:20:11.639Z,67.00
2018-03-02T20:22:38.610Z,67.60
2018-03-02T20:25:05.591Z,68.70
2018-03-02T20:27:32.567Z,69.20
2018-03-02T20:30:00.392Z,70.40
2018-03-02T20:32:27.361Z,70.40
2018-03-02T20:34:54.339Z,71.40
2018-03-02T20:37:21.312Z,71.40
2018-03-02T20:39:48.287Z,71.60
2018-03-02T20:42:16.118Z,72.60
2018-03-02T20:44:43.087Z,72.60
2018-03-02T20:47:10.063Z,73.00
2018-03-02T20:49:37.044Z,73.40
2018-03-02T20:52:04.861Z,73.80
2018-03-02T20:54:31.843Z,73.80
2018-03-02T20:56:58.911Z,74.30
2018-03-02T20:59:25.898Z,74.30
2018-03-02T21:01:52.931Z,74.20
2018-03-02T21:04:19.991Z,74.20
2018-03-02T21:06:47.055Z,74.50
2018-03-02T21:09:14.111Z,74.20
2018-03-02T21:11:41.111Z,74.40
2018-03-02T21:14:08.100Z,74.30
2018-03-02T21:16:35.088Z,74.60
2018-03-02T21:19:02.060Z,74.80
2018-03-02T21:21:29.041Z,75.00
2018-03-02T21:23:56.071Z,74.80
2018-03-02T21:26:23.072Z,75.20
2018-03-02T21:28:50.811Z,75.50
2018-03-02T21:31:17.803Z,75.50
2018-03-02T21:33:44.775Z,75.90
2018-03-02T21:36:12.594Z,75.90
2018-03-02T21:38:39.592Z,75.90
2018-03-02T21:41:06.575Z,76.10
2018-03-02T21:43:33.552Z,76.20
2018-03-02T21:46:00.536Z,76.40
2018-03-02T21:48:27.583Z,76.60
2018-03-02T21:50:54.656Z,76.80
2018-03-02T21:53:21.627Z,76.90
2018-03-02T21:55:48.606Z,77.10
2018-03-02T21:58:15.578Z,77.00
2018-03-02T22:00:43.399Z,77.10
2018-03-02T22:03:10.463Z,77.10
2018-03-02T22:05:37.447Z,76.90
2018-03-02T22:08:04.424Z,77.10
2018-03-02T22:10:32.170Z,77.20
2018-03-02T22:12:59.140Z,77.10
2018-03-02T22:15:26.168Z,76.60
2018-03-02T22:17:53.164Z,76.60
2018-03-02T22:20:20.131Z,77.20
2018-03-02T22:22:47.145Z,77.10
2018-03-02T22:25:14.116Z,77.20
2018-03-02T22:27:41.098Z,76.90
2018-03-02T22:30:08.128Z,77.20
2018-03-02T22:32:35.110Z,77.40
2018-03-02T22:35:02.137Z,77.50
2018-03-02T22:37:29.120Z,77.70
2018-03-02T22:39:56.154Z,77.70
2018-03-02T22:42:23.147Z,77.80
2018-03-02T22:44:50.179Z,77.90
2018-03-02T22:47:17.243Z,77.90
2018-03-02T22:49:44.296Z,77.80
2018-03-02T22:52:11.275Z,77.80
2018-03-02T22:54:38.247Z,77.60
2018-03-02T22:57:05.271Z,77.80
2018-03-02T22:59:32.332Z,77.80
2018-03-02T23:01:59.310Z,77.70
2018-03-02T23:04:26.347Z,77.70
2018-03-02T23:06:53.327Z,77.60
2018-03-02T23:09:20.408Z,77.80
2018-03-02T23:11:47.430Z,77.60
2018-03-02T23:14:14.402Z,77.50
2018-03-02T23:16:41.377Z,77.60
2018-03-02T23:19:08.362Z,77.60
2018-03-02T23:21:36.106Z,77.50
2018-03-02T23:24:03.141Z,77.60
2018-03-02T23:26:30.111Z,77.50
2018-03-02T23:28:57.095Z,77.60
2018-03-02T23:31:24.117Z,77.60
2018-03-02T23:33:51.174Z,77.90
2018-03-02T23:36:18.239Z,77.80
2018-03-02T23:38:45.291Z,77.90
2018-03-02T23:41:12.265Z,77.70
2018-03-02T23:43:39.248Z,77.80
2018-03-02T23:46:06.223Z,77.80
2018-03-02T23:48:33.971Z,77.70
2018-03-02T23:51:00.942Z,77.60
2018-03-02T23:53:27.964Z,77.60
2018-03-02T23:55:54.935Z,77.70
2018-03-02T23:58:21.919Z,77.60
